Josita B — 9HA3758 — position and weather

sailwx.info

Track history (hours):
 
Tides and Currents Weather Stations Pressure Air Temp Water Temp Dewpoint Dewpoint Depression Visibility Wind Speed Wind Dir Waves Ship Positions

Josita B

Last reported at 2018-Apr-22 04:49 UTC. Time now 2018-Apr-22 06:58 UTC.
Position N 39°26' W 000°19'.

Length 170 m; draft 7.4 m.

Type: Ship (hazmat cat C). MMSI: 229966000.

Date/timePositionNaut miles runAvg speedWind from/ knotsBaromVisibWave heightAir tempDewpointWater temp
2018-Apr-22 04:49N 39°26' W 000°19'0 0.0
2018-Apr-22 04:04N 39°26' W 000°19'0 0.0
2018-Apr-22 03:58N 39°26' W 000°19'0 0.0
2018-Apr-22 03:25N 39°26' W 000°19'0 0.0
2018-Apr-22 02:58N 39°26' W 000°19'0 0.0
2018-Apr-22 02:25N 39°26' W 000°19'0 0.0
2018-Apr-21 19:13N 39°26' W 000°19'0 0.0
2018-Apr-21 18:13N 39°26' W 000°19'0 1.5
2018-Apr-21 18:00N 39°26' W 000°19'3 6.2
2018-Apr-21 17:30N 39°27' W 000°15'715.0
2018-Apr-21 17:01N 39°32' W 000°08'1418.6
2018-Apr-21 16:17N 39°41' E 000°05'8918.4
2018-Apr-21 11:28N 40°40' E 001°31'919.1
2018-Apr-21 11:00N 40°47' E 001°39'1019.2
2018-Apr-21 10:30N 40°55' E 001°47'1019.0
2018-Apr-21 10:00N 41°02' E 001°55'919.0
2018-Apr-21 09:30N 41°09' E 002°03'918.3
2018-Apr-21 09:01N 41°16' E 002°10'4 9.0
2018-Apr-21 08:30N 41°21' E 002°10'1 1.1
2018-Apr-21 07:58N 41°21' E 002°10'0 0.0
2018-Apr-21 07:28N 41°21' E 002°10'0 0.0
2018-Apr-21 06:58N 41°21' E 002°10'0 0.0
2018-Apr-21 06:25N 41°21' E 002°10'0 0.0
2018-Apr-21 05:58N 41°21' E 002°10'0 0.0
2018-Apr-21 05:28N 41°21' E 002°10'0 0.0
2018-Apr-21 04:58N 41°21' E 002°10'0 0.0
2018-Apr-21 04:28N 41°21' E 002°10'0 0.0
2018-Apr-21 03:58N 41°21' E 002°10'0 0.0
2018-Apr-21 03:28N 41°21' E 002°10'0 0.0
2018-Apr-21 02:58N 41°21' E 002°10'0 0.0
2018-Apr-21 02:28N 41°21' E 002°10'0 0.0
2018-Apr-21 01:58N 41°21' E 002°10'0 0.0
2018-Apr-21 01:28N 41°21' E 002°10'0 0.0
2018-Apr-21 00:52N 41°21' E 002°10'0 0.0
2018-Apr-21 00:28N 41°21' E 002°10'0 0.0
2018-Apr-20 23:58N 41°21' E 002°10'0 0.0
2018-Apr-20 23:28N 41°21' E 002°10'0 0.0
2018-Apr-20 22:58N 41°21' E 002°10'0 0.0
2018-Apr-20 22:25N 41°21' E 002°10'0 0.0
2018-Apr-20 21:58N 41°21' E 002°10'0 0.0
2018-Apr-20 21:25N 41°21' E 002°10'0 0.0
2018-Apr-20 20:55N 41°21' E 002°10'0 0.0
2018-Apr-20 20:28N 41°21' E 002°10'0 0.0
2018-Apr-20 19:58N 41°21' E 002°10'0 0.0
2018-Apr-20 19:28N 41°21' E 002°10'0 0.0
2018-Apr-20 18:55N 41°21' E 002°10'0 0.0
2018-Apr-20 18:28N 41°21' E 002°10'0 0.0
2018-Apr-20 17:58N 41°21' E 002°10'0 0.0
2018-Apr-20 17:28N 41°21' E 002°10'0 0.0
2018-Apr-20 16:58N 41°21' E 002°10'0 0.0
2018-Apr-20 16:28N 41°21' E 002°10'0 0.0
2018-Apr-20 15:58N 41°21' E 002°10'0 0.0
2018-Apr-20 15:28N 41°21' E 002°10'0 0.0
2018-Apr-20 14:58N 41°21' E 002°10'0 0.0
2018-Apr-20 14:25N 41°21' E 002°10'0 0.0
2018-Apr-20 13:58N 41°21' E 002°10'0 0.0
2018-Apr-20 13:28N 41°21' E 002°10'0 0.0
2018-Apr-20 12:58N 41°21' E 002°10'0 0.0
2018-Apr-20 12:28N 41°21' E 002°10'0 0.0
2018-Apr-20 11:58N 41°21' E 002°10'0 0.0
2018-Apr-20 11:28N 41°21' E 002°10'0 0.0
2018-Apr-20 10:58N 41°21' E 002°10'0 0.0
2018-Apr-20 10:28N 41°21' E 002°10'0 0.0
2018-Apr-20 09:58N 41°21' E 002°10'0 0.0
2018-Apr-20 09:28N 41°21' E 002°10'0 0.0
2018-Apr-20 08:58N 41°21' E 002°10'1 1.5
2018-Apr-20 08:31N 41°21' E 002°10'5 9.2
2018-Apr-20 08:01N 41°16' E 002°11'4 7.0
2018-Apr-20 07:30N 41°13' E 002°09'0 0.6
2018-Apr-20 07:00N 41°13' E 002°08'1 1.1
2018-Apr-20 06:30N 41°13' E 002°09'0 0.5
2018-Apr-20 06:00N 41°14' E 002°09'1 3.0
2018-Apr-20 05:30N 41°12' E 002°08'2 4.5
2018-Apr-20 05:00N 41°11' E 002°06'0 0.5
2018-Apr-20 04:30N 41°11' E 002°06'0 0.5
2018-Apr-20 04:00N 41°11' E 002°06'0 0.7
2018-Apr-20 03:30N 41°11' E 002°07'0 0.6
2018-Apr-20 03:00N 41°11' E 002°07'1 1.0
2018-Apr-20 02:30N 41°12' E 002°07'0 0.5
2018-Apr-20 02:00N 41°12' E 002°07'0 0.9
2018-Apr-20 01:30N 41°12' E 002°08'0 0.8
2018-Apr-20 01:00N 41°12' E 002°08'0 0.9
2018-Apr-20 00:30N 41°12' E 002°09'0 0.2
2018-Apr-20 00:00N 41°12' E 002°09'3 5.9
2018-Apr-19 23:30N 41°10' E 002°06'510.9
2018-Apr-19 23:00N 41°06' E 002°01'610.8
2018-Apr-19 22:29N 41°02' E 001°56'511.1
2018-Apr-19 22:00N 40°58' E 001°51'109 4.4
2018-Apr-18 21:10N 39°45' E 000°05'311.3
2018-Apr-18 20:56N 39°43' E 000°03'711.4
2018-Apr-18 20:20N 39°38' W 000°03'911.6
2018-Apr-18 19:35N 39°31' W 000°10'111.6
2018-Apr-18 19:29N 39°30' W 000°11'611.7
2018-Apr-18 18:59N 39°26' W 000°16'2 5.0
2018-Apr-18 18:30N 39°26' W 000°19'0 0.0
2018-Apr-18 14:38N 39°26' W 000°19'0 0.0
2018-Apr-18 14:26N 39°26' W 000°19'0 0.0
2018-Apr-18 13:14N 39°26' W 000°19'0 0.0
2018-Apr-18 12:56N 39°26' W 000°19'0 0.0
2018-Apr-18 11:23N 39°26' W 000°19'0 0.0
2018-Apr-18 10:23N 39°26' W 000°19'0 0.0
2018-Apr-18 09:50N 39°26' W 000°19'0 0.0
2018-Apr-18 09:14N 39°26' W 000°19'0 0.0
2018-Apr-18 08:44N 39°26' W 000°19'0 0.0
2018-Apr-18 08:14N 39°26' W 000°19'0 0.0
2018-Apr-18 07:56N 39°26' W 000°19'0 0.0
2018-Apr-18 07:26N 39°26' W 000°19'0 0.0
2018-Apr-18 06:56N 39°26' W 000°19'0 0.0
2018-Apr-18 06:26N 39°26' W 000°19'0 0.0
2018-Apr-18 05:59N 39°26' W 000°19'0 0.0
2018-Apr-18 05:23N 39°26' W 000°19'0 0.0
2018-Apr-18 04:56N 39°26' W 000°19'0 0.0
2018-Apr-18 04:30N 39°26' W 000°19'2 3.8
2018-Apr-18 04:00N 39°26' W 000°17'1 1.3
2018-Apr-18 03:30N 39°25' W 000°16'2 3.1
2018-Apr-18 03:00N 39°24' W 000°14'61 7.7
2018-Apr-17 19:04N 38°24' W 000°12'113.4
2018-Apr-17 19:00N 38°23' W 000°13'713.3
2018-Apr-17 18:30N 38°21' W 000°21'6 0.7
2018-Apr-17 09:37N 38°16' W 000°26'414.4
2018-Apr-17 09:19N 38°12' W 000°23'714.7
2018-Apr-17 08:52N 38°05' W 000°24'514.8
2018-Apr-17 08:30N 37°60' W 000°25'815.1
2018-Apr-17 08:00N 37°52' W 000°26'815.4
2018-Apr-17 07:30N 37°45' W 000°27'815.2
2018-Apr-17 07:00N 37°37' W 000°27'815.1
2018-Apr-17 06:29N 37°31' W 000°34'816.5
2018-Apr-17 06:00N 37°26' W 000°41'816.4
2018-Apr-17 05:30N 37°21' W 000°49'916.4
2018-Apr-17 04:56N 37°15' W 000°58'715.9
2018-Apr-17 04:28N 37°10' W 001°05'21716.5
2018-Apr-16 15:19N 35°59' W 005°21'619.0
2018-Apr-16 15:00N 35°57' W 005°28'  
2018-Apr-13 20:42N 28°38' W 016°08'210.0
2018-Apr-13 20:30N 28°37' W 016°07'4 8.6
2018-Apr-13 20:00N 28°33' W 016°04'5 9.2
2018-Apr-13 19:30N 28°30' W 016°07'610.7
2018-Apr-13 18:59N 28°29' W 016°14'1 1.5
2018-Apr-13 18:28N 28°29' W 016°14'0 0.0
2018-Apr-13 17:58N 28°29' W 016°14'0 0.0
2018-Apr-13 17:28N 28°29' W 016°14'0 0.0
2018-Apr-13 16:58N 28°29' W 016°14'0 0.0
2018-Apr-13 16:28N 28°29' W 016°14'0 0.0
2018-Apr-13 15:58N 28°29' W 016°14'0 0.0
2018-Apr-13 15:28N 28°29' W 016°14'0 0.0
2018-Apr-13 14:58N 28°29' W 016°14'0 0.0
2018-Apr-13 14:28N 28°29' W 016°14'0 0.0
2018-Apr-13 13:58N 28°29' W 016°14'0 0.0
2018-Apr-13 13:28N 28°29' W 016°14'0 0.0
2018-Apr-13 12:58N 28°29' W 016°14'0 0.0
2018-Apr-13 12:28N 28°29' W 016°14'0 0.0
2018-Apr-13 11:58N 28°29' W 016°14'0 0.0
2018-Apr-13 11:28N 28°29' W 016°14'0 0.0
2018-Apr-13 10:58N 28°29' W 016°14'0 0.0
2018-Apr-13 10:28N 28°29' W 016°14'0 0.0
2018-Apr-13 09:58N 28°29' W 016°14'0 0.0
2018-Apr-13 09:28N 28°29' W 016°14'0 0.0
2018-Apr-13 08:58N 28°29' W 016°14'0 0.0
2018-Apr-13 08:28N 28°29' W 016°14'0 0.0
2018-Apr-13 07:58N 28°29' W 016°14'0 0.0
2018-Apr-13 07:28N 28°29' W 016°14'0 0.0
2018-Apr-13 06:58N 28°29' W 016°14'0 0.0
2018-Apr-13 06:28N 28°29' W 016°14'0 0.0
2018-Apr-13 05:58N 28°29' W 016°14'0 0.0
2018-Apr-13 05:25N 28°29' W 016°14'1 1.6
2018-Apr-13 05:00N 28°29' W 016°14'3 6.4
2018-Apr-13 04:30N 28°27' W 016°11'510.7
2018-Apr-13 04:00N 28°25' W 016°05'611.3
2018-Apr-13 03:30N 28°23' W 015°59'610.7
2018-Apr-13 02:59N 28°21' W 015°53'510.6
2018-Apr-13 02:30N 28°19' W 015°48'510.6
2018-Apr-13 02:00N 28°18' W 015°42'510.8
2018-Apr-13 01:30N 28°17' W 015°36'510.6
2018-Apr-13 01:00N 28°15' W 015°30'510.3
2018-Apr-13 00:30N 28°13' W 015°25'4 8.3
2018-Apr-12 23:59N 28°10' W 015°22'3 6.6
2018-Apr-12 23:30N 28°07' W 015°25'1 1.7
2018-Apr-12 22:51N 28°09' W 015°25'0 0.0
2018-Apr-12 22:24N 28°09' W 015°25'0 0.0
2018-Apr-12 21:54N 28°09' W 015°25'0 0.0
2018-Apr-12 21:24N 28°09' W 015°25'0 0.0
2018-Apr-12 20:54N 28°09' W 015°25'0 0.0
2018-Apr-12 20:24N 28°09' W 015°25'0 0.0
2018-Apr-12 19:57N 28°09' W 015°25'0 0.0
2018-Apr-12 19:24N 28°09' W 015°25'0 0.0
2018-Apr-12 18:57N 28°09' W 015°25'0 0.0
2018-Apr-12 18:27N 28°09' W 015°25'0 0.0
2018-Apr-12 17:57N 28°09' W 015°25'0 0.0
2018-Apr-12 17:27N 28°09' W 015°25'0 0.0
2018-Apr-12 16:57N 28°09' W 015°25'0 0.0
2018-Apr-12 16:30N 28°09' W 015°25'0 0.0
2018-Apr-12 16:00N 28°09' W 015°25'0 0.0
2018-Apr-12 15:30N 28°09' W 015°25'0 0.0
2018-Apr-12 15:00N 28°09' W 015°25'0 0.0
2018-Apr-12 14:30N 28°09' W 015°25'0 0.0
2018-Apr-12 14:00N 28°09' W 015°25'0 0.0
2018-Apr-12 13:30N 28°09' W 015°25'0 0.0
2018-Apr-12 13:00N 28°09' W 015°25'0 0.0
2018-Apr-12 12:30N 28°09' W 015°25'0 0.0
2018-Apr-12 12:00N 28°09' W 015°25'0 0.0
2018-Apr-12 11:30N 28°09' W 015°25'0 0.0
2018-Apr-12 11:00N 28°09' W 015°25'0 0.0
2018-Apr-12 10:30N 28°09' W 015°25'0 0.0
2018-Apr-12 10:00N 28°09' W 015°25'0 0.0
2018-Apr-12 09:21N 28°09' W 015°25'0 0.0
2018-Apr-12 09:00N 28°09' W 015°25'0 0.0
2018-Apr-12 08:21N 28°09' W 015°25'0 0.0
2018-Apr-12 07:51N 28°09' W 015°25'0 0.0
2018-Apr-12 07:21N 28°09' W 015°25'0 0.0
2018-Apr-12 06:51N 28°09' W 015°25'0 0.0
2018-Apr-12 06:24N 28°09' W 015°25'0 0.0
2018-Apr-12 05:51N 28°09' W 015°25'0 0.0
2018-Apr-12 05:24N 28°09' W 015°25'0 0.0
2018-Apr-12 04:57N 28°09' W 015°25'  
Track history (hours):
 
Tides and Currents Weather Stations Pressure Air Temp Water Temp Dewpoint Dewpoint Depression Visibility Wind Speed Wind Dir Waves Ship Positions

Josita B

Last reported at 2018-Apr-22 04:49 UTC. Time now 2018-Apr-22 06:58 UTC.
Position N 39°26' W 000°19'.

Length 170 m; draft 7.4 m.

Type: Ship (hazmat cat C). MMSI: 229966000.

Date/timePositionNaut miles runAvg speedWind from/ knotsBaromVisibWave heightAir tempDewpointWater temp
2018-Apr-22 04:49N 39°26' W 000°19'0 0.0
2018-Apr-22 04:04N 39°26' W 000°19'0 0.0
2018-Apr-22 03:58N 39°26' W 000°19'0 0.0
2018-Apr-22 03:25N 39°26' W 000°19'0 0.0
2018-Apr-22 02:58N 39°26' W 000°19'0 0.0
2018-Apr-22 02:25N 39°26' W 000°19'0 0.0
2018-Apr-21 19:13N 39°26' W 000°19'0 0.0
2018-Apr-21 18:13N 39°26' W 000°19'0 1.5
2018-Apr-21 18:00N 39°26' W 000°19'3 6.2
2018-Apr-21 17:30N 39°27' W 000°15'715.0
2018-Apr-21 17:01N 39°32' W 000°08'1418.6
2018-Apr-21 16:17N 39°41' E 000°05'8918.4
2018-Apr-21 11:28N 40°40' E 001°31'919.1
2018-Apr-21 11:00N 40°47' E 001°39'1019.2
2018-Apr-21 10:30N 40°55' E 001°47'1019.0
2018-Apr-21 10:00N 41°02' E 001°55'919.0
2018-Apr-21 09:30N 41°09' E 002°03'918.3
2018-Apr-21 09:01N 41°16' E 002°10'4 9.0
2018-Apr-21 08:30N 41°21' E 002°10'1 1.1
2018-Apr-21 07:58N 41°21' E 002°10'0 0.0
2018-Apr-21 07:28N 41°21' E 002°10'0 0.0
2018-Apr-21 06:58N 41°21' E 002°10'0 0.0
2018-Apr-21 06:25N 41°21' E 002°10'0 0.0
2018-Apr-21 05:58N 41°21' E 002°10'0 0.0
2018-Apr-21 05:28N 41°21' E 002°10'0 0.0
2018-Apr-21 04:58N 41°21' E 002°10'0 0.0
2018-Apr-21 04:28N 41°21' E 002°10'0 0.0
2018-Apr-21 03:58N 41°21' E 002°10'0 0.0
2018-Apr-21 03:28N 41°21' E 002°10'0 0.0
2018-Apr-21 02:58N 41°21' E 002°10'0 0.0
2018-Apr-21 02:28N 41°21' E 002°10'0 0.0
2018-Apr-21 01:58N 41°21' E 002°10'0 0.0
2018-Apr-21 01:28N 41°21' E 002°10'0 0.0
2018-Apr-21 00:52N 41°21' E 002°10'0 0.0
2018-Apr-21 00:28N 41°21' E 002°10'0 0.0
2018-Apr-20 23:58N 41°21' E 002°10'0 0.0
2018-Apr-20 23:28N 41°21' E 002°10'0 0.0
2018-Apr-20 22:58N 41°21' E 002°10'0 0.0
2018-Apr-20 22:25N 41°21' E 002°10'0 0.0
2018-Apr-20 21:58N 41°21' E 002°10'0 0.0
2018-Apr-20 21:25N 41°21' E 002°10'0 0.0
2018-Apr-20 20:55N 41°21' E 002°10'0 0.0
2018-Apr-20 20:28N 41°21' E 002°10'0 0.0
2018-Apr-20 19:58N 41°21' E 002°10'0 0.0
2018-Apr-20 19:28N 41°21' E 002°10'0 0.0
2018-Apr-20 18:55N 41°21' E 002°10'0 0.0
2018-Apr-20 18:28N 41°21' E 002°10'0 0.0
2018-Apr-20 17:58N 41°21' E 002°10'0 0.0
2018-Apr-20 17:28N 41°21' E 002°10'0 0.0
2018-Apr-20 16:58N 41°21' E 002°10'0 0.0
2018-Apr-20 16:28N 41°21' E 002°10'0 0.0
2018-Apr-20 15:58N 41°21' E 002°10'0 0.0
2018-Apr-20 15:28N 41°21' E 002°10'0 0.0
2018-Apr-20 14:58N 41°21' E 002°10'0 0.0
2018-Apr-20 14:25N 41°21' E 002°10'0 0.0
2018-Apr-20 13:58N 41°21' E 002°10'0 0.0
2018-Apr-20 13:28N 41°21' E 002°10'0 0.0
2018-Apr-20 12:58N 41°21' E 002°10'0 0.0
2018-Apr-20 12:28N 41°21' E 002°10'0 0.0
2018-Apr-20 11:58N 41°21' E 002°10'0 0.0
2018-Apr-20 11:28N 41°21' E 002°10'0 0.0
2018-Apr-20 10:58N 41°21' E 002°10'0 0.0
2018-Apr-20 10:28N 41°21' E 002°10'0 0.0
2018-Apr-20 09:58N 41°21' E 002°10'0 0.0
2018-Apr-20 09:28N 41°21' E 002°10'0 0.0
2018-Apr-20 08:58N 41°21' E 002°10'1 1.5
2018-Apr-20 08:31N 41°21' E 002°10'5 9.2
2018-Apr-20 08:01N 41°16' E 002°11'4 7.0
2018-Apr-20 07:30N 41°13' E 002°09'0 0.6
2018-Apr-20 07:00N 41°13' E 002°08'1 1.1
2018-Apr-20 06:30N 41°13' E 002°09'0 0.5
2018-Apr-20 06:00N 41°14' E 002°09'1 3.0
2018-Apr-20 05:30N 41°12' E 002°08'2 4.5
2018-Apr-20 05:00N 41°11' E 002°06'0 0.5
2018-Apr-20 04:30N 41°11' E 002°06'0 0.5
2018-Apr-20 04:00N 41°11' E 002°06'0 0.7
2018-Apr-20 03:30N 41°11' E 002°07'0 0.6
2018-Apr-20 03:00N 41°11' E 002°07'1 1.0
2018-Apr-20 02:30N 41°12' E 002°07'0 0.5
2018-Apr-20 02:00N 41°12' E 002°07'0 0.9
2018-Apr-20 01:30N 41°12' E 002°08'0 0.8
2018-Apr-20 01:00N 41°12' E 002°08'0 0.9
2018-Apr-20 00:30N 41°12' E 002°09'0 0.2
2018-Apr-20 00:00N 41°12' E 002°09'3 5.9
2018-Apr-19 23:30N 41°10' E 002°06'510.9
2018-Apr-19 23:00N 41°06' E 002°01'610.8
2018-Apr-19 22:29N 41°02' E 001°56'511.1
2018-Apr-19 22:00N 40°58' E 001°51'109 4.4
2018-Apr-18 21:10N 39°45' E 000°05'311.3
2018-Apr-18 20:56N 39°43' E 000°03'711.4
2018-Apr-18 20:20N 39°38' W 000°03'911.6
2018-Apr-18 19:35N 39°31' W 000°10'111.6
2018-Apr-18 19:29N 39°30' W 000°11'611.7
2018-Apr-18 18:59N 39°26' W 000°16'2 5.0
2018-Apr-18 18:30N 39°26' W 000°19'0 0.0
2018-Apr-18 14:38N 39°26' W 000°19'0 0.0
2018-Apr-18 14:26N 39°26' W 000°19'0 0.0
2018-Apr-18 13:14N 39°26' W 000°19'0 0.0
2018-Apr-18 12:56N 39°26' W 000°19'0 0.0
2018-Apr-18 11:23N 39°26' W 000°19'0 0.0
2018-Apr-18 10:23N 39°26' W 000°19'0 0.0
2018-Apr-18 09:50N 39°26' W 000°19'0 0.0
2018-Apr-18 09:14N 39°26' W 000°19'0 0.0
2018-Apr-18 08:44N 39°26' W 000°19'0 0.0
2018-Apr-18 08:14N 39°26' W 000°19'0 0.0
2018-Apr-18 07:56N 39°26' W 000°19'0 0.0
2018-Apr-18 07:26N 39°26' W 000°19'0 0.0
2018-Apr-18 06:56N 39°26' W 000°19'0 0.0
2018-Apr-18 06:26N 39°26' W 000°19'0 0.0
2018-Apr-18 05:59N 39°26' W 000°19'0 0.0
2018-Apr-18 05:23N 39°26' W 000°19'0 0.0
2018-Apr-18 04:56N 39°26' W 000°19'0 0.0
2018-Apr-18 04:30N 39°26' W 000°19'2 3.8
2018-Apr-18 04:00N 39°26' W 000°17'1 1.3
2018-Apr-18 03:30N 39°25' W 000°16'2 3.1
2018-Apr-18 03:00N 39°24' W 000°14'61 7.7
2018-Apr-17 19:04N 38°24' W 000°12'113.4
2018-Apr-17 19:00N 38°23' W 000°13'713.3
2018-Apr-17 18:30N 38°21' W 000°21'6 0.7
2018-Apr-17 09:37N 38°16' W 000°26'414.4
2018-Apr-17 09:19N 38°12' W 000°23'714.7
2018-Apr-17 08:52N 38°05' W 000°24'514.8
2018-Apr-17 08:30N 37°60' W 000°25'815.1
2018-Apr-17 08:00N 37°52' W 000°26'815.4
2018-Apr-17 07:30N 37°45' W 000°27'815.2
2018-Apr-17 07:00N 37°37' W 000°27'815.1
2018-Apr-17 06:29N 37°31' W 000°34'816.5
2018-Apr-17 06:00N 37°26' W 000°41'816.4
2018-Apr-17 05:30N 37°21' W 000°49'916.4
2018-Apr-17 04:56N 37°15' W 000°58'715.9
2018-Apr-17 04:28N 37°10' W 001°05'21716.5
2018-Apr-16 15:19N 35°59' W 005°21'619.0
2018-Apr-16 15:00N 35°57' W 005°28'  
2018-Apr-13 20:42N 28°38' W 016°08'210.0
2018-Apr-13 20:30N 28°37' W 016°07'4 8.6
2018-Apr-13 20:00N 28°33' W 016°04'5 9.2
2018-Apr-13 19:30N 28°30' W 016°07'610.7
2018-Apr-13 18:59N 28°29' W 016°14'1 1.5
2018-Apr-13 18:28N 28°29' W 016°14'0 0.0
2018-Apr-13 17:58N 28°29' W 016°14'0 0.0
2018-Apr-13 17:28N 28°29' W 016°14'0 0.0
2018-Apr-13 16:58N 28°29' W 016°14'0 0.0
2018-Apr-13 16:28N 28°29' W 016°14'0 0.0
2018-Apr-13 15:58N 28°29' W 016°14'0 0.0
2018-Apr-13 15:28N 28°29' W 016°14'0 0.0
2018-Apr-13 14:58N 28°29' W 016°14'0 0.0
2018-Apr-13 14:28N 28°29' W 016°14'0 0.0
2018-Apr-13 13:58N 28°29' W 016°14'0 0.0
2018-Apr-13 13:28N 28°29' W 016°14'0 0.0
2018-Apr-13 12:58N 28°29' W 016°14'0 0.0
2018-Apr-13 12:28N 28°29' W 016°14'0 0.0
2018-Apr-13 11:58N 28°29' W 016°14'0 0.0
2018-Apr-13 11:28N 28°29' W 016°14'0 0.0
2018-Apr-13 10:58N 28°29' W 016°14'0 0.0
2018-Apr-13 10:28N 28°29' W 016°14'0 0.0
2018-Apr-13 09:58N 28°29' W 016°14'0 0.0
2018-Apr-13 09:28N 28°29' W 016°14'0 0.0
2018-Apr-13 08:58N 28°29' W 016°14'0 0.0
2018-Apr-13 08:28N 28°29' W 016°14'0 0.0
2018-Apr-13 07:58N 28°29' W 016°14'0 0.0
2018-Apr-13 07:28N 28°29' W 016°14'0 0.0
2018-Apr-13 06:58N 28°29' W 016°14'0 0.0
2018-Apr-13 06:28N 28°29' W 016°14'0 0.0
2018-Apr-13 05:58N 28°29' W 016°14'0 0.0
2018-Apr-13 05:25N 28°29' W 016°14'1 1.6
2018-Apr-13 05:00N 28°29' W 016°14'3 6.4
2018-Apr-13 04:30N 28°27' W 016°11'510.7
2018-Apr-13 04:00N 28°25' W 016°05'611.3
2018-Apr-13 03:30N 28°23' W 015°59'610.7
2018-Apr-13 02:59N 28°21' W 015°53'510.6
2018-Apr-13 02:30N 28°19' W 015°48'510.6
2018-Apr-13 02:00N 28°18' W 015°42'510.8
2018-Apr-13 01:30N 28°17' W 015°36'510.6
2018-Apr-13 01:00N 28°15' W 015°30'510.3
2018-Apr-13 00:30N 28°13' W 015°25'4 8.3
2018-Apr-12 23:59N 28°10' W 015°22'3 6.6
2018-Apr-12 23:30N 28°07' W 015°25'1 1.7
2018-Apr-12 22:51N 28°09' W 015°25'0 0.0
2018-Apr-12 22:24N 28°09' W 015°25'0 0.0
2018-Apr-12 21:54N 28°09' W 015°25'0 0.0
2018-Apr-12 21:24N 28°09' W 015°25'0 0.0
2018-Apr-12 20:54N 28°09' W 015°25'0 0.0
2018-Apr-12 20:24N 28°09' W 015°25'0 0.0
2018-Apr-12 19:57N 28°09' W 015°25'0 0.0
2018-Apr-12 19:24N 28°09' W 015°25'0 0.0
2018-Apr-12 18:57N 28°09' W 015°25'0 0.0
2018-Apr-12 18:27N 28°09' W 015°25'0 0.0
2018-Apr-12 17:57N 28°09' W 015°25'0 0.0
2018-Apr-12 17:27N 28°09' W 015°25'0 0.0
2018-Apr-12 16:57N 28°09' W 015°25'0 0.0
2018-Apr-12 16:30N 28°09' W 015°25'0 0.0
2018-Apr-12 16:00N 28°09' W 015°25'0 0.0
2018-Apr-12 15:30N 28°09' W 015°25'0 0.0
2018-Apr-12 15:00N 28°09' W 015°25'0 0.0
2018-Apr-12 14:30N 28°09' W 015°25'0 0.0
2018-Apr-12 14:00N 28°09' W 015°25'0 0.0
2018-Apr-12 13:30N 28°09' W 015°25'0 0.0
2018-Apr-12 13:00N 28°09' W 015°25'0 0.0
2018-Apr-12 12:30N 28°09' W 015°25'0 0.0
2018-Apr-12 12:00N 28°09' W 015°25'0 0.0
2018-Apr-12 11:30N 28°09' W 015°25'0 0.0
2018-Apr-12 11:00N 28°09' W 015°25'0 0.0
2018-Apr-12 10:30N 28°09' W 015°25'0 0.0
2018-Apr-12 10:00N 28°09' W 015°25'0 0.0
2018-Apr-12 09:21N 28°09' W 015°25'0 0.0
2018-Apr-12 09:00N 28°09' W 015°25'0 0.0
2018-Apr-12 08:21N 28°09' W 015°25'0 0.0
2018-Apr-12 07:51N 28°09' W 015°25'0 0.0
2018-Apr-12 07:21N 28°09' W 015°25'0 0.0
2018-Apr-12 06:51N 28°09' W 015°25'0 0.0
2018-Apr-12 06:24N 28°09' W 015°25'0 0.0
2018-Apr-12 05:51N 28°09' W 015°25'0 0.0
2018-Apr-12 05:24N 28°09' W 015°25'0 0.0
2018-Apr-12 04:57N 28°09' W 015°25'  

Dump ship's entire track history